Time;durP1;ratioP1;P1;durP2;ratioP2;P2;SDS_P1;SDS_P2;PMS_P1;PMS_P2;Temp;Humidity;BMP_temperature;BMP_pressure;BME280_temperature;BME280_humidity;BME280_pressure;Samples;Min_cycle;Max_cycle;Signal;HPM_P1;HPM_P2
2022/07/30 00:00:06;;;;;;;9.70;5.68;;;;;;;-148.14;100.00;65945.72;5056866;28;20037;-84
2022/07/30 00:02:31;;;;;;;7.75;5.18;;;;;;;-148.14;100.00;65945.72;5037290;28;20028;-82
2022/07/30 00:04:57;;;;;;;8.60;4.28;;;;;;;-148.14;100.00;65945.72;5057024;28;20059;-84
2022/07/30 00:07:23;;;;;;;8.10;4.38;;;;;;;-148.14;100.00;65945.72;5031369;28;20060;-84
2022/07/30 00:09:49;;;;;;;6.97;4.32;;;;;;;-148.14;100.00;65945.72;5033514;28;20044;-83
2022/07/30 00:12:15;;;;;;;8.30;3.55;;;;;;;-148.14;100.00;65945.72;5055611;28;20033;-85
2022/07/30 00:14:43;;;;;;;9.18;4.25;;;;;;;-148.14;100.00;65945.72;5056879;28;20039;-84
2022/07/30 00:17:09;;;;;;;5.78;3.85;;;;;;;-148.14;100.00;65945.72;5055581;28;20021;-83
2022/07/30 00:19:35;;;;;;;7.03;3.97;;;;;;;-148.14;100.00;65945.72;5038103;28;20046;-84
2022/07/30 00:22:01;;;;;;;6.30;3.67;;;;;;;-148.14;100.00;65945.72;5054399;28;20029;-83
2022/07/30 00:24:27;;;;;;;7.13;3.88;;;;;;;-148.14;100.00;65945.72;5010225;28;20025;-84
2022/07/30 00:26:52;;;;;;;7.60;3.92;;;;;;;-148.14;100.00;65945.72;5028845;28;20108;-84
2022/07/30 00:29:18;;;;;;;5.55;4.03;;;;;;;-148.14;100.00;65945.72;5056554;28;20120;-84
2022/07/30 00:31:45;;;;;;;7.15;3.78;;;;;;;-148.14;100.00;65945.72;5014870;28;21715;-82
2022/07/30 00:34:11;;;;;;;7.30;3.70;;;;;;;-148.14;100.00;65945.72;5036084;28;20025;-83
2022/07/30 00:36:38;;;;;;;10.98;4.38;;;;;;;-148.14;100.00;65945.72;5032187;28;20055;-84
2022/07/30 00:39:04;;;;;;;5.65;3.35;;;;;;;-148.14;100.00;65945.72;5022143;28;20540;-86
2022/07/30 00:41:30;;;;;;;5.00;3.53;;;;;;;-148.14;100.00;65945.72;5054884;28;20025;-85
2022/07/30 00:43:56;;;;;;;5.40;3.25;;;;;;;-148.14;100.00;65945.72;5056060;28;20024;-85
2022/07/30 00:46:22;;;;;;;8.07;3.60;;;;;;;-148.14;100.00;65945.72;5055969;28;20029;-83
2022/07/30 00:48:48;;;;;;;8.82;3.50;;;;;;;-148.14;100.00;65945.72;5056056;28;20043;-83
2022/07/30 00:51:15;;;;;;;6.90;3.42;;;;;;;-148.14;100.00;65945.72;5055554;28;20029;-83
2022/07/30 00:53:42;;;;;;;6.90;3.28;;;;;;;-148.14;100.00;65945.72;5055811;28;20028;-84
2022/07/30 00:56:08;;;;;;;7.75;4.07;;;;;;;-148.14;100.00;65945.72;5055415;28;20470;-83
2022/07/30 00:58:33;;;;;;;7.45;3.95;;;;;;;-148.14;100.00;65945.72;5055907;28;20031;-84
2022/07/30 01:01:02;;;;;;;5.43;3.10;;;;;;;-148.14;100.00;65945.72;5054991;28;20398;-83
2022/07/30 01:03:28;;;;;;;12.73;3.78;;;;;;;-148.14;100.00;65945.72;5030584;28;20047;-82
2022/07/30 01:05:53;;;;;;;6.38;3.55;;;;;;;-148.14;100.00;65945.72;5018904;28;20039;-84
2022/07/30 01:08:22;;;;;;;6.85;3.42;;;;;;;-148.14;100.00;65945.72;5055950;28;20052;-84
2022/07/30 01:10:48;;;;;;;5.90;3.53;;;;;;;-148.14;100.00;65945.72;5025027;28;20476;-83
2022/07/30 01:13:14;;;;;;;8.80;3.45;;;;;;;-148.14;100.00;65945.72;5056847;28;20032;-84
2022/07/30 01:15:40;;;;;;;11.63;3.63;;;;;;;-148.14;100.00;65945.72;5055475;28;20061;-85
2022/07/30 01:18:11;;;;;;;7.55;3.75;;;;;;;-148.14;100.00;65945.72;5057246;28;20483;-84
2022/07/30 01:21:00;;;;;;;6.15;3.10;;;;;;;-148.14;100.00;65945.72;5016184;28;20033;-85
2022/07/30 01:23:40;;;;;;;4.32;3.20;;;;;;;-148.14;100.00;65945.72;5051813;28;20041;-84
2022/07/30 01:26:08;;;;;;;9.63;3.60;;;;;;;-148.14;100.00;65945.72;5060130;28;20040;-84
2022/07/30 01:28:47;;;;;;;8.18;3.40;;;;;;;-148.14;100.00;65945.72;5062476;28;20033;-85
2022/07/30 01:31:14;;;;;;;6.35;4.07;;;;;;;-148.14;100.00;65945.72;5041112;28;20056;-85
2022/07/30 01:33:43;;;;;;;9.55;4.10;;;;;;;-148.14;100.00;65945.72;5050727;28;20097;-86
2022/07/30 01:36:13;;;;;;;6.47;3.60;;;;;;;-148.14;100.00;65945.72;5051672;28;20029;-84
2022/07/30 01:38:42;;;;;;;6.50;3.78;;;;;;;-148.14;100.00;65945.72;5049463;28;20052;-84
2022/07/30 01:41:08;;;;;;;5.38;4.00;;;;;;;-148.14;100.00;65945.72;5042938;28;20086;-85
2022/07/30 01:43:35;;;;;;;11.27;4.30;;;;;;;-148.14;100.00;65945.72;5044771;28;20033;-85
2022/07/30 01:46:02;;;;;;;5.85;3.97;;;;;;;-148.14;100.00;65945.72;5054802;28;20096;-85
2022/07/30 01:48:30;;;;;;;11.82;4.13;;;;;;;-148.14;100.00;65945.72;5025586;28;20136;-85
2022/07/30 01:50:59;;;;;;;6.18;4.00;;;;;;;-148.14;100.00;65945.72;5033582;28;20105;-86
2022/07/30 01:53:28;;;;;;;5.90;4.05;;;;;;;-148.14;100.00;65945.72;5042263;28;20043;-85
2022/07/30 01:55:56;;;;;;;6.35;4.28;;;;;;;-148.14;100.00;65945.72;5062145;28;20094;-86
2022/07/30 01:58:26;;;;;;;7.65;4.10;;;;;;;-148.14;100.00;65945.72;5044268;28;20036;-85
2022/07/30 02:00:55;;;;;;;10.07;5.07;;;;;;;-148.14;100.00;65945.72;5039258;28;20025;-84
2022/07/30 02:03:21;;;;;;;8.82;5.00;;;;;;;-148.14;100.00;65945.72;5061286;28;20032;-84
2022/07/30 02:06:06;;;;;;;9.20;4.95;;;;;;;-148.14;100.00;65945.72;5034047;28;20033;-85
2022/07/30 02:08:37;;;;;;;12.65;5.22;;;;;;;-148.14;100.00;65945.72;5058703;28;20047;-83
2022/07/30 02:11:08;;;;;;;5.57;4.45;;;;;;;-148.14;100.00;65945.72;5036170;28;20033;-85
2022/07/30 02:13:44;;;;;;;9.93;5.05;;;;;;;-148.14;100.00;65945.72;5026073;28;20500;-86
2022/07/30 02:16:23;;;;;;;11.55;5.45;;;;;;;-148.14;100.00;65945.72;5060111;28;20059;-84
2022/07/30 02:19:01;;;;;;;16.25;5.72;;;;;;;-148.14;100.00;65945.72;5033670;28;20163;-86
2022/07/30 02:21:33;;;;;;;14.18;6.97;;;;;;;-148.14;100.00;65945.72;5058818;28;20036;-83
2022/07/30 02:24:01;;;;;;;11.32;5.45;;;;;;;-148.14;100.00;65945.72;5032150;28;20103;-83
2022/07/30 02:26:29;;;;;;;11.30;6.32;;;;;;;-148.14;100.00;65945.72;5030652;28;20411;-83
2022/07/30 02:28:59;;;;;;;11.02;6.28;;;;;;;-148.14;100.00;65945.72;5037309;28;20137;-84
2022/07/30 02:31:27;;;;;;;10.88;6.70;;;;;;;-148.14;100.00;65945.72;5034134;28;20047;-84
2022/07/30 02:33:57;;;;;;;17.10;7.72;;;;;;;-148.14;100.00;65945.72;5058516;28;20029;-85
2022/07/30 02:36:25;;;;;;;11.25;7.80;;;;;;;-148.14;100.00;65945.72;5034314;28;20032;-84
2022/07/30 02:38:51;;;;;;;12.43;8.75;;;;;;;-148.14;100.00;65945.72;5042114;28;20048;-85
2022/07/30 02:41:22;;;;;;;16.27;9.13;;;;;;;-148.14;100.00;65945.72;5032805;28;20029;-84
2022/07/30 02:43:51;;;;;;;16.05;9.85;;;;;;;-148.14;100.00;65945.72;5057896;28;20054;-85
2022/07/30 02:46:17;;;;;;;11.05;8.73;;;;;;;-148.14;100.00;65945.72;5039919;28;20025;-84
2022/07/30 02:48:45;;;;;;;16.92;9.32;;;;;;;-148.14;100.00;65945.72;5057874;28;20037;-83
2022/07/30 02:51:16;;;;;;;11.82;9.38;;;;;;;-148.14;100.00;65945.72;5057604;28;20114;-84
2022/07/30 02:53:46;;;;;;;22.52;9.60;;;;;;;-148.14;100.00;65945.72;5024006;28;20029;-84
2022/07/30 02:56:14;;;;;;;11.45;9.05;;;;;;;-148.14;100.00;65945.72;5039786;28;20054;-85
2022/07/30 02:58:42;;;;;;;12.70;8.82;;;;;;;-148.14;100.00;65945.72;5031275;28;20028;-86
2022/07/30 03:01:10;;;;;;;13.90;9.60;;;;;;;-148.14;100.00;65945.72;5028563;28;20037;-85
2022/07/30 03:03:36;;;;;;;15.63;9.98;;;;;;;-148.14;100.00;65945.72;5030506;28;20041;-83
2022/07/30 03:06:04;;;;;;;16.02;9.60;;;;;;;-148.14;100.00;65945.72;5036506;28;20128;-84
2022/07/30 03:08:31;;;;;;;15.13;9.95;;;;;;;-148.14;100.00;65945.72;5055751;28;20094;-84
2022/07/30 03:10:58;;;;;;;12.75;9.88;;;;;;;-148.14;100.00;65945.72;5058085;28;20037;-86
2022/07/30 03:13:24;;;;;;;11.65;9.57;;;;;;;-148.14;100.00;65945.72;5029912;28;20045;-84
2022/07/30 03:15:51;;;;;;;14.90;10.25;;;;;;;-148.14;100.00;65945.72;5031321;28;20050;-83
2022/07/30 03:18:20;;;;;;;12.02;9.85;;;;;;;-148.14;100.00;65945.72;5031945;28;20479;-84
2022/07/30 03:20:50;;;;;;;12.00;9.70;;;;;;;-148.14;100.00;65945.72;5054727;28;20059;-85
2022/07/30 03:23:18;;;;;;;14.70;12.32;;;;;;;-148.14;100.00;65945.72;5032860;28;20041;-85
2022/07/30 03:25:49;;;;;;;14.63;10.55;;;;;;;-148.14;100.00;65945.72;5056781;28;20033;-84
2022/07/30 03:28:17;;;;;;;18.00;11.77;;;;;;;-148.14;100.00;65945.72;5058210;28;20029;-84
2022/07/30 03:30:43;;;;;;;14.45;10.50;;;;;;;-148.14;100.00;65945.72;5058127;28;20095;-85
2022/07/30 03:33:11;;;;;;;12.57;10.10;;;;;;;-148.14;100.00;65945.72;5030099;28;20063;-85
2022/07/30 03:35:38;;;;;;;17.88;13.63;;;;;;;-148.14;100.00;65945.72;5016300;28;20065;-84
2022/07/30 03:38:05;;;;;;;17.92;12.55;;;;;;;-148.14;100.00;65945.72;5058094;28;20422;-84
2022/07/30 03:40:32;;;;;;;16.23;12.40;;;;;;;-148.14;100.00;65945.72;5057517;28;20108;-84
2022/07/30 03:42:58;;;;;;;13.77;12.20;;;;;;;-148.14;100.00;65945.72;5057262;28;20032;-84
2022/07/30 03:45:25;;;;;;;15.05;12.52;;;;;;;-148.14;100.00;65945.72;5056183;28;21816;-83
2022/07/30 03:47:52;;;;;;;16.25;13.65;;;;;;;-148.14;100.00;65945.72;5057095;28;20029;-84
2022/07/30 03:50:17;;;;;;;12.63;11.27;;;;;;;-148.14;100.00;65945.72;5057764;28;20031;-84
2022/07/30 03:52:43;;;;;;;19.20;14.35;;;;;;;-148.14;100.00;65945.72;5036032;28;20452;-85
2022/07/30 03:55:11;;;;;;;17.13;12.73;;;;;;;-148.14;100.00;65945.72;5057194;28;20029;-86
2022/07/30 03:57:37;;;;;;;15.48;12.32;;;;;;;-148.14;100.00;65945.72;5031971;28;20032;-85
2022/07/30 04:00:06;;;;;;;12.60;11.32;;;;;;;-148.14;100.00;65945.72;5025698;28;20029;-86
2022/07/30 04:02:45;;;;;;;18.08;14.50;;;;;;;-148.14;100.00;65945.72;5031105;28;20541;-85
2022/07/30 04:05:13;;;;;;;16.63;12.70;;;;;;;-148.14;100.00;65945.72;5036160;28;20025;-84
2022/07/30 04:07:38;;;;;;;17.50;12.70;;;;;;;-148.14;100.00;65945.72;5030825;28;20060;-85
2022/07/30 04:10:05;;;;;;;14.85;13.15;;;;;;;-148.14;100.00;65945.72;5030820;28;20021;-87
2022/07/30 04:12:32;;;;;;;16.17;13.93;;;;;;;-148.14;100.00;65945.72;5059165;28;20056;-85
2022/07/30 04:14:58;;;;;;;14.82;13.32;;;;;;;-148.14;100.00;65945.72;5058832;28;20044;-85
2022/07/30 04:17:30;;;;;;;25.23;14.95;;;;;;;-148.14;100.00;65945.72;5020850;28;20026;-87
2022/07/30 04:20:04;;;;;;;18.13;13.85;;;;;;;-148.14;100.00;65945.72;5056766;28;20028;-86
2022/07/30 04:22:32;;;;;;;18.08;14.77;;;;;;;-148.14;100.00;65945.72;5054958;28;20029;-84
2022/07/30 04:25:00;;;;;;;27.05;15.57;;;;;;;-148.14;100.00;65945.72;5029294;28;20024;-85
2022/07/30 04:27:28;;;;;;;24.00;15.38;;;;;;;-148.14;100.00;65945.72;5028989;28;20039;-85
2022/07/30 04:29:54;;;;;;;15.85;14.05;;;;;;;-148.14;100.00;65945.72;5057993;28;20029;-86
2022/07/30 04:32:19;;;;;;;15.20;13.70;;;;;;;-148.14;100.00;65945.72;5034799;28;20037;-85
2022/07/30 04:34:50;;;;;;;18.13;15.75;;;;;;;-148.14;100.00;65945.72;5034110;28;20024;-85
2022/07/30 04:37:17;;;;;;;23.27;15.15;;;;;;;-148.14;100.00;65945.72;5024361;28;20025;-84
2022/07/30 04:39:43;;;;;;;16.90;13.45;;;;;;;-148.14;100.00;65945.72;5024805;28;20040;-85
2022/07/30 04:42:10;;;;;;;16.58;13.05;;;;;;;-148.14;100.00;65945.72;5033576;28;20029;-86
2022/07/30 04:44:36;;;;;;;14.60;12.43;;;;;;;-148.14;100.00;65945.72;5012612;28;20130;-85
2022/07/30 04:47:03;;;;;;;15.43;12.40;;;;;;;-148.14;100.00;65945.72;5057946;28;20029;-85
2022/07/30 04:49:30;;;;;;;13.18;11.63;;;;;;;-148.14;100.00;65945.72;5032287;28;20096;-87
2022/07/30 04:51:56;;;;;;;17.05;11.35;;;;;;;-148.14;100.00;65945.72;5009308;28;20386;-85
2022/07/30 04:54:24;;;;;;;13.10;10.43;;;;;;;-148.14;100.00;65945.72;5023433;28;20523;-86
2022/07/30 04:56:51;;;;;;;13.32;10.80;;;;;;;-148.14;100.00;65945.72;5040004;28;20033;-86
2022/07/30 04:59:17;;;;;;;12.50;10.10;;;;;;;-148.14;100.00;65945.72;5059608;28;20514;-85
2022/07/30 05:01:48;;;;;;;11.65;9.77;;;;;;;-148.14;100.00;65945.72;5059343;28;20035;-86
2022/07/30 05:04:15;;;;;;;10.30;9.23;;;;;;;-148.14;100.00;65945.72;5040300;28;20036;-86
2022/07/30 05:06:42;;;;;;;9.27;8.35;;;;;;;-148.14;100.00;65945.72;5036319;28;20110;-85
2022/07/30 05:09:08;;;;;;;9.77;8.57;;;;;;;-148.14;100.00;65945.72;5059448;28;20029;-86
2022/07/30 05:11:34;;;;;;;10.48;8.07;;;;;;;-148.14;100.00;65945.72;5059904;28;20091;-85
2022/07/30 05:13:59;;;;;;;11.27;8.27;;;;;;;-148.14;100.00;65945.72;5029161;28;20475;-86
2022/07/30 05:16:26;;;;;;;9.77;8.27;;;;;;;-148.14;100.00;65945.72;5052721;28;20069;-83
2022/07/30 05:18:52;;;;;;;8.63;6.90;;;;;;;-148.14;100.00;65945.72;5033271;28;20543;-85
2022/07/30 05:21:18;;;;;;;6.32;5.72;;;;;;;-148.14;100.00;65945.72;5039480;28;20047;-84
2022/07/30 05:23:43;;;;;;;6.93;5.70;;;;;;;-148.14;100.00;65945.72;5041314;28;20474;-84
2022/07/30 05:26:09;;;;;;;7.88;5.50;;;;;;;-148.14;100.00;65945.72;5058906;28;20028;-83
2022/07/30 05:28:35;;;;;;;7.38;4.85;;;;;;;-148.14;100.00;65945.72;5055043;28;20121;-85
2022/07/30 05:31:01;;;;;;;7.10;5.70;;;;;;;-148.14;100.00;65945.72;5056256;28;20495;-83
2022/07/30 05:33:27;;;;;;;6.28;4.90;;;;;;;-148.14;100.00;65945.72;5048634;28;20033;-84
2022/07/30 05:35:53;;;;;;;6.68;5.18;;;;;;;-148.14;100.00;65945.72;5032343;28;20471;-84
2022/07/30 05:38:18;;;;;;;6.03;4.78;;;;;;;-148.14;100.00;65945.72;5035278;28;20039;-84
2022/07/30 05:40:45;;;;;;;9.85;5.63;;;;;;;-148.14;100.00;65945.72;5033194;28;20021;-84
2022/07/30 05:43:11;;;;;;;6.18;4.57;;;;;;;-148.14;100.00;65945.72;5032021;28;20025;-84
2022/07/30 05:45:36;;;;;;;6.35;4.80;;;;;;;-148.14;100.00;65945.72;5033482;28;20040;-84
2022/07/30 05:48:02;;;;;;;7.28;4.85;;;;;;;-148.14;100.00;65945.72;5059387;28;20029;-84
2022/07/30 05:50:29;;;;;;;5.07;4.43;;;;;;;-148.14;100.00;65945.72;5038576;28;20031;-84
2022/07/30 05:52:57;;;;;;;6.90;4.68;;;;;;;-148.14;100.00;65945.72;5037789;28;20108;-85
2022/07/30 05:55:22;;;;;;;5.47;4.53;;;;;;;-148.14;100.00;65945.72;5051193;28;20099;-84
2022/07/30 05:57:49;;;;;;;5.20;4.70;;;;;;;-148.14;100.00;65945.72;5010894;28;20036;-86
2022/07/30 06:00:15;;;;;;;6.65;4.88;;;;;;;-148.14;100.00;65945.72;5012976;28;20030;-85
2022/07/30 06:02:40;;;;;;;9.27;4.65;;;;;;;-148.14;100.00;65945.72;5032526;28;20029;-85
2022/07/30 06:05:07;;;;;;;8.35;4.47;;;;;;;-148.14;100.00;65945.72;5033803;28;20036;-86
2022/07/30 06:07:32;;;;;;;7.95;5.05;;;;;;;-148.14;100.00;65945.72;5028901;28;20083;-84
2022/07/30 06:10:00;;;;;;;7.82;4.50;;;;;;;-148.14;100.00;65945.72;5021527;28;20044;-85
2022/07/30 06:12:29;;;;;;;5.10;4.40;;;;;;;-148.14;100.00;65945.72;5054560;28;20025;-85
2022/07/30 06:14:55;;;;;;;7.45;4.72;;;;;;;-148.14;100.00;65945.72;5054549;28;20033;-86
2022/07/30 06:17:23;;;;;;;7.30;4.80;;;;;;;-148.14;100.00;65945.72;5054218;28;20017;-84
2022/07/30 06:19:49;;;;;;;7.25;4.85;;;;;;;-148.14;100.00;65945.72;5029139;28;20476;-84
2022/07/30 06:22:16;;;;;;;7.68;4.75;;;;;;;-148.14;100.00;65945.72;5036824;28;20055;-83
2022/07/30 06:24:41;;;;;;;8.27;4.72;;;;;;;-148.14;100.00;65945.72;5025860;28;20379;-86
2022/07/30 06:27:08;;;;;;;6.53;4.85;;;;;;;-148.14;100.00;65945.72;5055019;28;20029;-83
2022/07/30 06:29:37;;;;;;;4.85;4.30;;;;;;;-148.14;100.00;65945.72;5031260;28;20110;-83
2022/07/30 06:32:03;;;;;;;8.27;5.05;;;;;;;-148.14;100.00;65945.72;5056972;28;20110;-85
2022/07/30 06:34:29;;;;;;;5.15;4.50;;;;;;;-148.14;100.00;65945.72;5029014;28;20033;-84
2022/07/30 06:36:55;;;;;;;11.80;4.60;;;;;;;-148.14;100.00;65945.72;5055234;28;20071;-86
2022/07/30 06:39:20;;;;;;;6.68;4.63;;;;;;;-148.14;100.00;65945.72;5055138;28;20032;-87
2022/07/30 06:41:46;;;;;;;4.70;4.30;;;;;;;-148.14;100.00;65945.72;5055850;28;20036;-84
2022/07/30 06:44:11;;;;;;;6.28;4.70;;;;;;;-148.14;100.00;65945.72;5037051;28;20064;-85
2022/07/30 06:46:37;;;;;;;6.63;4.10;;;;;;;-148.14;100.00;65945.72;5036313;28;20399;-83
2022/07/30 06:49:03;;;;;;;8.63;4.47;;;;;;;-148.14;100.00;65945.72;5051947;28;20395;-84
2022/07/30 06:51:31;;;;;;;6.57;4.18;;;;;;;-148.14;100.00;65945.72;5035716;28;20479;-84
2022/07/30 06:53:58;;;;;;;6.38;4.57;;;;;;;-148.14;100.00;65945.72;5038003;28;20029;-84
2022/07/30 06:56:23;;;;;;;5.10;4.25;;;;;;;-148.14;100.00;65945.72;5056251;28;20096;-82
2022/07/30 06:58:49;;;;;;;5.38;4.18;;;;;;;-148.14;100.00;65945.72;5053812;28;20029;-84
2022/07/30 07:01:14;;;;;;;5.10;4.47;;;;;;;-148.14;100.00;65945.72;5053421;28;20050;-83
2022/07/30 07:03:40;;;;;;;5.95;4.25;;;;;;;-148.14;100.00;65945.72;5052854;28;20386;-83
2022/07/30 07:06:06;;;;;;;6.80;4.63;;;;;;;-148.14;100.00;65945.72;5052163;28;20108;-83
2022/07/30 07:08:35;;;;;;;5.05;4.40;;;;;;;-148.14;100.00;65945.72;5035194;28;20032;-83
2022/07/30 07:11:00;;;;;;;8.48;4.28;;;;;;;-148.14;100.00;65945.72;5025294;28;20429;-84
2022/07/30 07:13:26;;;;;;;6.40;4.28;;;;;;;-148.14;100.00;65945.72;5056181;28;20029;-82
2022/07/30 07:15:52;;;;;;;5.65;4.32;;;;;;;-148.14;100.00;65945.72;5053375;28;20024;-85
2022/07/30 07:18:18;;;;;;;7.65;4.53;;;;;;;-148.14;100.00;65945.72;5011564;28;20024;-88
2022/07/30 07:20:45;;;;;;;6.45;4.53;;;;;;;-148.14;100.00;65945.72;5053244;28;20043;-84
2022/07/30 07:23:13;;;;;;;5.22;4.72;;;;;;;-148.14;100.00;65945.72;5041920;28;20036;-83
2022/07/30 07:25:39;;;;;;;6.65;4.60;;;;;;;-148.14;100.00;65945.72;5051726;28;20025;-86
2022/07/30 07:28:06;;;;;;;6.63;4.00;;;;;;;-148.14;100.00;65945.72;5054410;28;20521;-85
2022/07/30 07:30:32;;;;;;;7.05;4.32;;;;;;;-148.14;100.00;65945.72;5042309;28;20052;-86
2022/07/30 07:32:58;;;;;;;4.57;4.07;;;;;;;-148.14;100.00;65945.72;5036068;28;20029;-85
2022/07/30 07:35:24;;;;;;;5.25;4.07;;;;;;;-148.14;100.00;65945.72;5052437;28;20487;-85
2022/07/30 07:37:52;;;;;;;7.50;4.47;;;;;;;-148.14;100.00;65945.72;5037137;28;20032;-84
2022/07/30 07:40:18;;;;;;;7.63;4.25;;;;;;;-148.14;100.00;65945.72;5030822;28;20040;-86
2022/07/30 07:42:44;;;;;;;6.05;4.00;;;;;;;-148.14;100.00;65945.72;5057365;28;20029;-84
2022/07/30 07:45:14;;;;;;;5.95;4.75;;;;;;;-148.14;100.00;65945.72;5059326;28;20132;-87
2022/07/30 07:47:44;;;;;;;13.75;4.47;;;;;;;-148.14;100.00;65945.72;5030079;28;20029;-84
2022/07/30 07:50:10;;;;;;;4.68;4.13;;;;;;;-148.14;100.00;65945.72;5016785;28;20044;-84
2022/07/30 07:52:36;;;;;;;4.35;3.95;;;;;;;-148.14;100.00;65945.72;5024437;28;20017;-86
2022/07/30 07:55:02;;;;;;;6.20;4.22;;;;;;;-148.14;100.00;65945.72;5044996;28;20025;-85
2022/07/30 07:57:27;;;;;;;6.20;4.40;;;;;;;-148.14;100.00;65945.72;5054728;28;20070;-85
2022/07/30 07:59:54;;;;;;;5.28;4.00;;;;;;;-148.14;100.00;65945.72;5054190;28;20049;-84
2022/07/30 08:02:19;;;;;;;7.55;4.05;;;;;;;-148.14;100.00;65945.72;5017330;28;20028;-85
2022/07/30 08:04:45;;;;;;;4.45;3.97;;;;;;;-148.14;100.00;65945.72;5054162;28;20051;-85
2022/07/30 08:07:14;;;;;;;6.20;4.80;;;;;;;-148.14;100.00;65945.72;5037567;28;20082;-85
2022/07/30 08:09:42;;;;;;;6.18;4.22;;;;;;;-148.14;100.00;65945.72;5053882;28;20458;-85
2022/07/30 08:12:08;;;;;;;6.22;4.93;;;;;;;-148.14;100.00;65945.72;5023520;28;20029;-84
2022/07/30 08:14:34;;;;;;;5.07;4.57;;;;;;;-148.14;100.00;65945.72;5053314;28;20087;-84
2022/07/30 08:16:59;;;;;;;7.05;4.40;;;;;;;-148.14;100.00;65945.72;5035913;28;20039;-87
2022/07/30 08:19:25;;;;;;;5.25;4.75;;;;;;;-148.14;100.00;65945.72;5050356;28;20515;-84
2022/07/30 08:21:51;;;;;;;5.88;4.63;;;;;;;-148.14;100.00;65945.72;5055731;28;20443;-85
2022/07/30 08:24:16;;;;;;;7.00;5.32;;;;;;;-148.14;100.00;65945.72;5055121;28;20036;-87
2022/07/30 08:26:42;;;;;;;7.90;4.80;;;;;;;-148.14;100.00;65945.72;5027218;28;20107;-84
2022/07/30 08:29:07;;;;;;;9.60;5.25;;;;;;;-148.14;100.00;65945.72;5053404;28;20029;-85
2022/07/30 08:31:33;;;;;;;5.95;4.60;;;;;;;-148.14;100.00;65945.72;5053324;28;20060;-83
2022/07/30 08:33:59;;;;;;;6.00;4.40;;;;;;;-148.14;100.00;65945.72;5026385;28;20033;-89
2022/07/30 08:36:25;;;;;;;6.88;5.28;;;;;;;-148.14;100.00;65945.72;5056824;28;20163;-84
2022/07/30 08:38:50;;;;;;;6.72;4.57;;;;;;;-148.14;100.00;65945.72;5052836;28;20048;-85
2022/07/30 08:41:19;;;;;;;7.53;4.90;;;;;;;-148.14;100.00;65945.72;5053739;28;20055;-86
2022/07/30 08:43:48;;;;;;;7.85;4.80;;;;;;;-148.14;100.00;65945.72;5037636;28;20092;-84
2022/07/30 08:46:16;;;;;;;4.75;4.05;;;;;;;-148.14;100.00;65945.72;5058250;28;20139;-86
2022/07/30 08:48:42;;;;;;;6.68;4.43;;;;;;;-148.14;100.00;65945.72;5021632;28;20402;-84
2022/07/30 08:51:08;;;;;;;6.15;4.75;;;;;;;-148.14;100.00;65945.72;5058324;28;20363;-87
2022/07/30 08:53:34;;;;;;;5.35;4.57;;;;;;;-148.14;100.00;65945.72;5040663;28;20091;-85
2022/07/30 08:56:01;;;;;;;6.90;4.80;;;;;;;-148.14;100.00;65945.72;5034308;28;20029;-86
2022/07/30 08:58:33;;;;;;;5.78;4.20;;;;;;;-148.14;100.00;65945.72;5057519;28;20784;-85
2022/07/30 09:01:00;;;;;;;5.45;4.43;;;;;;;-148.14;100.00;65945.72;5036519;28;20061;-84
2022/07/30 09:03:26;;;;;;;5.85;4.40;;;;;;;-148.14;100.00;65945.72;5054203;28;20040;-84
2022/07/30 09:05:52;;;;;;;7.03;4.45;;;;;;;-148.14;100.00;65945.72;5057221;28;20098;-84
2022/07/30 09:08:18;;;;;;;7.85;4.50;;;;;;;-148.14;100.00;65945.72;5039924;28;20044;-85
2022/07/30 09:10:47;;;;;;;5.40;4.60;;;;;;;-148.14;100.00;65945.72;5057736;28;20029;-85
2022/07/30 09:13:34;;;;;;;4.78;4.22;;;;;;;-148.14;100.00;65945.72;5030766;28;20025;-85
2022/07/30 09:16:01;;;;;;;4.80;4.35;;;;;;;-148.14;100.00;65945.72;5060096;28;20063;-85
2022/07/30 09:18:34;;;;;;;4.78;4.20;;;;;;;-148.14;100.00;65945.72;5053170;28;20078;-84
2022/07/30 09:21:23;;;;;;;4.35;3.83;;;;;;;-148.14;100.00;65945.72;5057714;28;20058;-85
2022/07/30 09:23:59;;;;;;;5.88;4.20;;;;;;;-148.14;100.00;65945.72;5066942;28;20486;-88
2022/07/30 09:26:26;;;;;;;4.18;3.65;;;;;;;-148.14;100.00;65945.72;5036951;28;20029;-86
2022/07/30 09:28:52;;;;;;;6.65;3.40;;;;;;;-148.14;100.00;65945.72;5036576;28;20037;-87
2022/07/30 09:31:19;;;;;;;3.47;3.15;;;;;;;-148.14;100.00;65945.72;5059067;28;20410;-85
2022/07/30 09:33:45;;;;;;;3.35;3.05;;;;;;;-148.14;100.00;65945.72;5075703;28;20037;-86
2022/07/30 09:36:16;;;;;;;3.72;3.33;;;;;;;-148.14;100.00;65945.72;5062268;28;20036;-87
2022/07/30 09:38:46;;;;;;;4.97;3.67;;;;;;;-148.14;100.00;65945.72;5062859;28;20032;-88
2022/07/30 09:41:13;;;;;;;3.45;3.15;;;;;;;-148.14;100.00;65945.72;5060395;28;20475;-87
2022/07/30 09:43:50;;;;;;;3.55;3.22;;;;;;;-148.14;100.00;65945.72;5055973;28;20015;-90
2022/07/30 09:46:17;;;;;;;7.05;3.00;;;;;;;-148.14;100.00;65945.72;5056879;28;20033;-87
2022/07/30 09:48:45;;;;;;;4.78;3.13;;;;;;;-148.14;100.00;65945.72;5074946;28;20024;-87
2022/07/30 09:51:12;;;;;;;3.55;3.25;;;;;;;-148.14;100.00;65945.72;5071125;28;20029;-86
2022/07/30 09:53:59;;;;;;;3.70;2.88;;;;;;;-148.14;100.00;65945.72;5065866;28;20029;-85
2022/07/30 09:56:27;;;;;;;4.53;2.92;;;;;;;-148.14;100.00;65945.72;5048580;28;20108;-88
2022/07/30 09:58:54;;;;;;;3.47;3.17;;;;;;;-148.14;100.00;65945.72;5064061;28;20033;-88
2022/07/30 10:01:20;;;;;;;3.35;3.05;;;;;;;-148.14;100.00;65945.72;5046062;28;20064;-88
2022/07/30 10:03:46;;;;;;;4.63;3.30;;;;;;;-148.14;100.00;65945.72;5063327;28;20029;-88
2022/07/30 10:06:15;;;;;;;3.20;2.80;;;;;;;-148.14;100.00;65945.72;5064014;28;20029;-88
2022/07/30 10:08:51;;;;;;;3.75;3.40;;;;;;;-148.14;100.00;65945.72;5062352;28;20032;-86
2022/07/30 10:11:21;;;;;;;3.30;3.00;;;;;;;-148.14;100.00;65945.72;5063185;28;20047;-85
2022/07/30 10:17:24;;;;;;;5.18;3.85;;;;;;;-148.14;100.00;65945.72;5038650;28;20356;-85
2022/07/30 10:19:50;;;;;;;4.20;3.80;;;;;;;-148.14;100.00;65945.72;5037776;28;20053;-88
2022/07/30 10:22:16;;;;;;;3.42;3.13;;;;;;;-148.14;100.00;65945.72;5005335;28;20049;-88
2022/07/30 10:24:43;;;;;;;5.00;4.15;;;;;;;-148.14;100.00;65945.72;5017829;28;20033;-85
2022/07/30 10:27:09;;;;;;;3.83;3.53;;;;;;;-148.14;100.00;65945.72;5033522;28;20060;-86
2022/07/30 10:29:37;;;;;;;4.82;3.75;;;;;;;-148.14;100.00;65945.72;5018233;28;20033;-85
2022/07/30 10:32:03;;;;;;;4.10;3.80;;;;;;;-148.14;100.00;65945.72;5017724;28;20049;-85
2022/07/30 10:34:31;;;;;;;3.85;3.47;;;;;;;-148.14;100.00;65945.72;5010277;28;20506;-86
2022/07/30 10:37:02;;;;;;;4.03;3.28;;;;;;;-148.14;100.00;65945.72;5032466;28;20075;-86
2022/07/30 10:39:36;;;;;;;4.68;3.45;;;;;;;-148.14;100.00;65945.72;5034739;28;20095;-86
2022/07/30 10:42:19;;;;;;;;;;;;;;;-148.14;100.00;65945.72;5035513;28;20042;-88
2022/07/30 10:44:58;;;;;;;4.05;3.70;;;;;;;-148.14;100.00;65945.72;5023105;28;19966;-88
2022/07/30 10:47:25;;;;;;;5.50;3.78;;;;;;;-148.14;100.00;65945.72;5044478;28;20112;-86
2022/07/30 10:50:12;;;;;;;3.90;3.55;;;;;;;-148.14;100.00;65945.72;5053359;28;20036;-86
2022/07/30 10:52:51;;;;;;;5.82;3.10;;;;;;;-148.14;100.00;65945.72;5038543;28;20040;-86
2022/07/30 10:55:18;;;;;;;6.50;3.40;;;;;;;-148.14;100.00;65945.72;5039376;28;20033;-86
2022/07/30 10:58:11;;;;;;;3.28;2.97;;;;;;;-148.14;100.00;65945.72;5033042;28;20025;-86
2022/07/30 11:00:52;;;;;;;4.53;3.35;;;;;;;-148.14;100.00;65945.72;5038503;28;20036;-86
2022/07/30 11:03:23;;;;;;;6.50;3.40;;;;;;;-148.14;100.00;65945.72;5036802;28;20475;-90
2022/07/30 11:05:51;;;;;;;3.95;3.60;;;;;;;-148.14;100.00;65945.72;5066906;28;20029;-90
2022/07/30 11:08:35;;;;;;;4.97;3.92;;;;;;;-148.14;100.00;65945.72;5067440;28;20039;-90
2022/07/30 11:11:03;;;;;;;4.65;3.47;;;;;;;-148.14;100.00;65945.72;5047717;28;20052;-89
2022/07/30 11:13:57;;;;;;;3.28;2.90;;;;;;;-148.14;100.00;65945.72;5036062;28;20087;-89